Norasia Valparaiso — A8CJ9 — position and weather

sailwx.info

Track history (hours):
 
Tides and Currents Weather Stations Pressure Air Temp Water Temp Dewpoint Dewpoint Depression Visibility Wind Speed Wind Dir Waves Ship Positions

Norasia Valparaiso

Last reported at 2014-Sep-17 15:32 UTC. Time now 2014-Sep-17 15:39 UTC.
Position N 39°26' W 000°19'.

Length 286.3 m; beam 32.2 m; draft 13.2 m.

Type: Cargo ship. MMSI: 636090659.

Date/timePositionNaut miles runAvg speedWind from/ knotsBaromVisibWave heightAir tempDewpointWater temp
2014-Sep-17 15:32N 39°26' W 000°19'0 0.0
2014-Sep-17 14:32N 39°26' W 000°19'0 0.0
2014-Sep-17 13:32N 39°26' W 000°19'0 0.0
2014-Sep-17 12:32N 39°26' W 000°19'0 0.0
2014-Sep-17 08:30N 39°26' W 000°19'0 0.0
2014-Sep-17 07:24N 39°26' W 000°19'0 0.0
2014-Sep-17 06:31N 39°26' W 000°19'0 0.0
2014-Sep-17 05:31N 39°26' W 000°19'0 0.1
2014-Sep-17 04:28N 39°26' W 000°19'5 5.5
2014-Sep-17 03:33N 39°24' W 000°13'9914.0
2014-Sep-16 20:27N 39°05' E 001°53'1415.2
2014-Sep-16 19:32N 38°58' E 002°08'1615.0
2014-Sep-16 18:27N 38°49' E 002°25'8115.4
2014-Sep-16 13:14N 38°05' E 003°51'23115.7
2014-Sep-15 22:27N 37°43' E 008°43'1415.8
2014-Sep-15 21:33N 37°42' E 009°01'1615.9
2014-Sep-15 20:33N 37°42' E 009°21'1616.1
2014-Sep-15 19:33N 37°41' E 009°42'1615.7
2014-Sep-15 18:33N 37°40' E 010°01'1515.0
2014-Sep-15 17:33N 37°38' E 010°20'1815.0
2014-Sep-15 16:22N 37°34' E 010°42'1215.3
2014-Sep-15 15:33N 37°31' E 010°57'8215.3
2014-Sep-15 10:14N 36°59' E 012°32'1115.9
2014-Sep-15 09:33N 36°56' E 012°44'1615.7
2014-Sep-15 08:33N 36°50' E 013°03'1616.1
2014-Sep-15 07:33N 36°45' E 013°22'3718.3
2014-Sep-15 05:33N 36°33' E 014°05'1515.5
2014-Sep-15 04:33N 36°28' E 014°23'1515.3
2014-Sep-15 03:33N 36°23' E 014°41'1615.0
2014-Sep-15 02:31N 36°17' E 014°59'42514.2
2014-Sep-13 20:33N 37°34' E 023°42'1716.6
2014-Sep-13 19:33N 37°50' E 023°36'7 0.6
2014-Sep-13 07:08N 37°57' E 023°35'0 0.0
2014-Sep-13 06:32N 37°57' E 023°35'0 0.0
2014-Sep-13 05:32N 37°57' E 023°35'1 1.4
2014-Sep-13 04:34N 37°56' E 023°36'2 1.7
2014-Sep-13 03:34N 37°54' E 023°37'7 7.4
2014-Sep-13 02:34N 37°48' E 023°41'10 9.6
2014-Sep-13 01:30N 37°39' E 023°46'4815.5
2014-Sep-12 22:24N 36°52' E 024°03'1617.2
2014-Sep-12 21:27N 36°38' E 024°12'1516.8
2014-Sep-12 20:33N 36°26' E 024°23'1716.4
2014-Sep-12 19:29N 36°16' E 024°41'1516.2
2014-Sep-12 18:33N 36°08' E 024°57'1716.8
2014-Sep-12 17:33N 35°60' E 025°15'1717.1
2014-Sep-12 16:33N 35°51' E 025°33'1716.7
2014-Sep-12 15:33N 35°42' E 025°51'2116.8
2014-Sep-12 14:16N 35°31' E 026°13'8217.1
2014-Sep-12 09:27N 34°41' E 027°33'  
Track history (hours):
 
Tides and Currents Weather Stations Pressure Air Temp Water Temp Dewpoint Dewpoint Depression Visibility Wind Speed Wind Dir Waves Ship Positions

Norasia Valparaiso

Last reported at 2014-Sep-17 15:32 UTC. Time now 2014-Sep-17 15:39 UTC.
Position N 39°26' W 000°19'.

Length 286.3 m; beam 32.2 m; draft 13.2 m.

Type: Cargo ship. MMSI: 636090659.

Date/timePositionNaut miles runAvg speedWind from/ knotsBaromVisibWave heightAir tempDewpointWater temp
2014-Sep-17 15:32N 39°26' W 000°19'0 0.0
2014-Sep-17 14:32N 39°26' W 000°19'0 0.0
2014-Sep-17 13:32N 39°26' W 000°19'0 0.0
2014-Sep-17 12:32N 39°26' W 000°19'0 0.0
2014-Sep-17 08:30N 39°26' W 000°19'0 0.0
2014-Sep-17 07:24N 39°26' W 000°19'0 0.0
2014-Sep-17 06:31N 39°26' W 000°19'0 0.0
2014-Sep-17 05:31N 39°26' W 000°19'0 0.1
2014-Sep-17 04:28N 39°26' W 000°19'5 5.5
2014-Sep-17 03:33N 39°24' W 000°13'9914.0
2014-Sep-16 20:27N 39°05' E 001°53'1415.2
2014-Sep-16 19:32N 38°58' E 002°08'1615.0
2014-Sep-16 18:27N 38°49' E 002°25'8115.4
2014-Sep-16 13:14N 38°05' E 003°51'23115.7
2014-Sep-15 22:27N 37°43' E 008°43'1415.8
2014-Sep-15 21:33N 37°42' E 009°01'1615.9
2014-Sep-15 20:33N 37°42' E 009°21'1616.1
2014-Sep-15 19:33N 37°41' E 009°42'1615.7
2014-Sep-15 18:33N 37°40' E 010°01'1515.0
2014-Sep-15 17:33N 37°38' E 010°20'1815.0
2014-Sep-15 16:22N 37°34' E 010°42'1215.3
2014-Sep-15 15:33N 37°31' E 010°57'8215.3
2014-Sep-15 10:14N 36°59' E 012°32'1115.9
2014-Sep-15 09:33N 36°56' E 012°44'1615.7
2014-Sep-15 08:33N 36°50' E 013°03'1616.1
2014-Sep-15 07:33N 36°45' E 013°22'3718.3
2014-Sep-15 05:33N 36°33' E 014°05'1515.5
2014-Sep-15 04:33N 36°28' E 014°23'1515.3
2014-Sep-15 03:33N 36°23' E 014°41'1615.0
2014-Sep-15 02:31N 36°17' E 014°59'42514.2
2014-Sep-13 20:33N 37°34' E 023°42'1716.6
2014-Sep-13 19:33N 37°50' E 023°36'7 0.6
2014-Sep-13 07:08N 37°57' E 023°35'0 0.0
2014-Sep-13 06:32N 37°57' E 023°35'0 0.0
2014-Sep-13 05:32N 37°57' E 023°35'1 1.4
2014-Sep-13 04:34N 37°56' E 023°36'2 1.7
2014-Sep-13 03:34N 37°54' E 023°37'7 7.4
2014-Sep-13 02:34N 37°48' E 023°41'10 9.6
2014-Sep-13 01:30N 37°39' E 023°46'4815.5
2014-Sep-12 22:24N 36°52' E 024°03'1617.2
2014-Sep-12 21:27N 36°38' E 024°12'1516.8
2014-Sep-12 20:33N 36°26' E 024°23'1716.4
2014-Sep-12 19:29N 36°16' E 024°41'1516.2
2014-Sep-12 18:33N 36°08' E 024°57'1716.8
2014-Sep-12 17:33N 35°60' E 025°15'1717.1
2014-Sep-12 16:33N 35°51' E 025°33'1716.7
2014-Sep-12 15:33N 35°42' E 025°51'2116.8
2014-Sep-12 14:16N 35°31' E 026°13'8217.1
2014-Sep-12 09:27N 34°41' E 027°33'  

Dump ship's entire track history